Zapata, TX

19:19 CDT le 31 octobre 2014 (GMT -0500)
Laredo International | Change Station
CLOSE
Current Station
Aéroport
Location: Laredo,
Altitude: 509 ft
Stations météo à proximité

Alt. 509 ft 27.54 °N, 99.46 °W | Updated 23 minutes ago

Partiellement nuageux
Partiellement nuageux
72 ° F
Paraît 72 ° F
N
7
Vent Variable Vent de NNE

Aujourd'hui
Haut(e) -- | Bas -- ° F
--% Risque de précip.
Hier
Haut(e) -- | Bas -- ° F
Precip. -- pouce
7:46 AM 6:54 PM
Premier quartier, 60% visible
Pression 30.21 pouce
Visibilité 10.0 Miles terrestres
Nuages Ciel dégagé
Point de rosée 50 ° F
Humidité 46%
Précipitations 0.35 pouce
Profondeur de la couche neigeuse Non disponible.
UV 0 sur 12
Pollen 4.40 sur 12
Qualité de l'air Non disponible.
Flu Activity Non disponible.
METAR KLRD 312356Z 02006KT 10SM CLR 22/10 A3023 RMK AO2 53003 T02220100 10261 20216 SLP228

More Conditions Fewer Conditions

Pression 30.21 pouce
Visibilité 10.0 Miles terrestres
Nuages Ciel dégagé
Point de rosée 50 ° F
Humidité 46%
Précipitations 0.35 pouce
Profondeur de la couche neigeuse Non disponible.
UV 0 sur 12
Pollen 4.40 sur 12
Qualité de l'air Non disponible.
Flu Activity Non disponible.
METAR KLRD 312356Z 02006KT 10SM CLR 22/10 A3023 RMK AO2 53003 T02220100 10261 20216 SLP228

More Conditions Fewer Conditions

10-Day Weather Forecast

Almanac

Astronomie

Oct. 31, 2014 Lever Coucher
Temps réel
Crépuscule civil
Crépuscule nautique
Crépuscule astronomique
Lune
Durée de lumière visible
Longueur du jour
Tomorrow will be .
, % of the Moon is Illuminated

Extrêmes aujourd'hui

State Highs State Lows

Community

WunderPhotos

Upload Photos

1,766,788 Photos téléchargées !

WunderBlogs® & News

Nearby

Qualité de l'air

  Qualité de l'air Indice de la qualité de l'air Polluant
Not available.

Épaisseur de neige

Station Depth Altitude

Activité sismique

Ville Distance Mag. Time & Date
Minimum magnitude displayed is 2.5.

Températures des eaux côtières

Lieu Température

Stations météo à proximité